createdAt,value
2018-02-11T00:00:14.889Z,10.00
2018-02-11T00:02:42.423Z,8.90
2018-02-11T00:05:09.951Z,9.80
2018-02-11T00:07:37.564Z,10.50
2018-02-11T00:10:05.154Z,9.70
2018-02-11T00:12:32.703Z,9.33
2018-02-11T00:15:00.305Z,11.53
2018-02-11T00:17:27.830Z,11.93
2018-02-11T00:19:56.128Z,9.17
2018-02-11T00:22:23.899Z,9.80
2018-02-11T00:24:51.443Z,10.43
2018-02-11T00:27:18.950Z,10.03
2018-02-11T00:29:46.513Z,13.17
2018-02-11T00:32:14.076Z,10.40
2018-02-11T00:34:41.618Z,12.80
2018-02-11T00:37:09.208Z,11.10
2018-02-11T00:39:36.743Z,11.10
2018-02-11T00:42:05.048Z,11.07
2018-02-11T00:44:32.636Z,10.53
2018-02-11T00:47:00.339Z,12.07
2018-02-11T00:49:27.907Z,10.10
2018-02-11T00:51:55.474Z,11.93
2018-02-11T00:54:23.798Z,12.93
2018-02-11T00:56:51.320Z,11.43
2018-02-11T00:59:18.976Z,12.13
2018-02-11T01:01:46.547Z,11.97
2018-02-11T01:04:14.112Z,12.93
2018-02-11T01:06:42.439Z,11.90
2018-02-11T01:09:09.975Z,14.27
2018-02-11T01:11:37.518Z,13.03
2018-02-11T01:14:05.072Z,13.47
2018-02-11T01:16:32.583Z,12.53
2018-02-11T01:19:00.152Z,12.50
2018-02-11T01:21:27.682Z,13.77
2018-02-11T01:23:55.245Z,13.00
2018-02-11T01:26:22.812Z,13.23
2018-02-11T01:28:50.548Z,12.67
2018-02-11T01:31:18.089Z,13.13
2018-02-11T01:33:45.664Z,13.63
2018-02-11T01:36:14.407Z,11.93
2018-02-11T01:38:41.978Z,13.13
2018-02-11T01:41:10.342Z,11.63
2018-02-11T01:43:38.019Z,16.27
2018-02-11T01:46:05.589Z,12.00
2018-02-11T01:48:33.261Z,12.10
2018-02-11T01:51:00.873Z,13.00
2018-02-11T01:53:28.444Z,12.50
2018-02-11T01:55:56.016Z,11.27
2018-02-11T01:58:24.343Z,10.40
2018-02-11T02:00:51.909Z,11.30
2018-02-11T02:03:19.481Z,11.47
2018-02-11T02:05:47.165Z,10.30
2018-02-11T02:08:14.732Z,9.80
2018-02-11T02:10:42.306Z,10.17
2018-02-11T02:13:10.668Z,11.77
2018-02-11T02:15:38.941Z,10.23
2018-02-11T02:18:06.468Z,9.23
2018-02-11T02:20:34.805Z,9.87
2018-02-11T02:23:02.323Z,11.03
2018-02-11T02:25:29.847Z,9.80
2018-02-11T02:27:57.394Z,10.53
2018-02-11T02:30:24.939Z,10.30
2018-02-11T02:32:52.521Z,10.67
2018-02-11T02:35:20.128Z,10.23
2018-02-11T02:37:47.696Z,11.00
2018-02-11T02:40:15.268Z,11.03
2018-02-11T02:42:43.744Z,10.17
2018-02-11T02:45:12.077Z,11.53
2018-02-11T02:47:39.649Z,11.80
2018-02-11T02:50:07.984Z,11.83
2018-02-11T02:52:35.457Z,11.27
2018-02-11T02:55:03.751Z,11.87
2018-02-11T02:57:31.305Z,10.10
2018-02-11T02:59:58.876Z,10.83
2018-02-11T03:02:26.351Z,11.83
2018-02-11T03:04:54.921Z,11.07
2018-02-11T03:07:23.248Z,11.33
2018-02-11T03:09:50.779Z,10.07
2018-02-11T03:12:18.623Z,10.80
2018-02-11T03:14:46.158Z,11.80
2018-02-11T03:17:13.691Z,12.67
2018-02-11T03:19:41.288Z,10.50
2018-02-11T03:22:09.633Z,10.10
2018-02-11T03:24:37.196Z,10.43
2018-02-11T03:27:05.043Z,11.73
2018-02-11T03:29:32.621Z,11.33
2018-02-11T03:32:00.196Z,11.33
2018-02-11T03:34:27.750Z,14.13
2018-02-11T03:36:55.280Z,11.00
2018-02-11T03:39:22.848Z,11.73
2018-02-11T03:41:50.486Z,12.00
2018-02-11T03:44:18.049Z,14.77
2018-02-11T03:46:45.620Z,12.43
2018-02-11T03:49:13.508Z,14.40
2018-02-11T03:51:41.292Z,14.87
2018-02-11T03:54:08.856Z,13.57
2018-02-11T03:56:37.316Z,12.97
2018-02-11T03:59:05.652Z,13.97
2018-02-11T04:01:33.229Z,12.20
2018-02-11T04:04:01.588Z,14.77
2018-02-11T04:06:29.896Z,18.17
2018-02-11T04:08:57.435Z,15.63
2018-02-11T04:11:24.983Z,18.00
2018-02-11T04:13:52.516Z,16.77
2018-02-11T04:16:20.100Z,18.20
2018-02-11T04:18:47.751Z,17.77
2018-02-11T04:21:15.287Z,18.43
2018-02-11T04:23:42.827Z,18.20
2018-02-11T04:26:10.332Z,17.83
2018-02-11T04:28:37.875Z,20.47
2018-02-11T04:31:05.414Z,16.63
2018-02-11T04:33:33.009Z,20.60
2018-02-11T04:36:00.581Z,18.57
2018-02-11T04:38:28.883Z,19.33
2018-02-11T04:40:56.476Z,20.00
2018-02-11T04:43:24.817Z,19.33
2018-02-11T04:45:52.393Z,19.53
2018-02-11T04:48:20.844Z,19.43
2018-02-11T04:50:49.184Z,20.83
2018-02-11T04:53:16.885Z,19.47
2018-02-11T04:55:44.611Z,20.53
2018-02-11T04:58:12.952Z,19.97
2018-02-11T05:00:40.491Z,20.57
2018-02-11T05:03:08.434Z,19.70
2018-02-11T05:05:35.938Z,18.67
2018-02-11T05:08:03.464Z,18.17
2018-02-11T05:10:31.836Z,21.30
2018-02-11T05:12:59.374Z,20.00
2018-02-11T05:15:26.965Z,18.50
2018-02-11T05:17:54.568Z,18.47
2018-02-11T05:20:22.119Z,20.23
2018-02-11T05:22:49.655Z,21.17
2018-02-11T05:25:17.220Z,22.00
2018-02-11T05:27:44.760Z,20.90
2018-02-11T05:30:12.337Z,21.63
2018-02-11T05:32:40.287Z,21.33
2018-02-11T05:35:07.860Z,24.63
2018-02-11T05:37:36.196Z,21.73
2018-02-11T05:40:03.797Z,24.67
2018-02-11T05:42:31.306Z,24.80
2018-02-11T05:44:58.830Z,24.93
2018-02-11T05:47:26.808Z,25.60
2018-02-11T05:49:55.144Z,25.87
2018-02-11T05:52:22.720Z,25.10
2018-02-11T05:54:51.047Z,22.97
2018-02-11T05:57:18.520Z,27.60
2018-02-11T05:59:46.861Z,24.57
2018-02-11T06:02:14.598Z,25.80
2018-02-11T06:04:42.168Z,24.80
2018-02-11T06:07:10.759Z,24.33
2018-02-11T06:09:38.360Z,20.87
2018-02-11T06:12:05.932Z,20.20
2018-02-11T06:14:34.276Z,25.90
2018-02-11T06:17:01.885Z,21.07
2018-02-11T06:19:29.456Z,18.63
2018-02-11T06:21:57.034Z,21.70
2018-02-11T06:24:25.397Z,20.07
2018-02-11T06:26:52.968Z,18.90
2018-02-11T06:29:20.489Z,19.60
2018-02-11T06:31:48.133Z,19.10
2018-02-11T06:34:15.612Z,19.83
2018-02-11T06:36:43.143Z,19.13
2018-02-11T06:39:10.711Z,18.83
2018-02-11T06:41:38.242Z,18.97
2018-02-11T06:44:05.778Z,19.30
2018-02-11T06:46:33.372Z,20.20
2018-02-11T06:49:01.717Z,17.33
2018-02-11T06:51:29.301Z,16.23
2018-02-11T06:53:57.111Z,18.47
2018-02-11T06:56:24.703Z,16.87
2018-02-11T06:58:52.243Z,16.37
2018-02-11T07:01:19.848Z,18.47
2018-02-11T07:03:47.420Z,17.90
2018-02-11T07:06:15.760Z,17.10
2018-02-11T07:08:43.512Z,17.33
2018-02-11T07:11:11.083Z,17.33
2018-02-11T07:13:38.558Z,17.13
2018-02-11T07:16:06.107Z,19.63
2018-02-11T07:18:33.676Z,18.47
2018-02-11T07:21:01.214Z,16.27
2018-02-11T07:23:28.954Z,17.17
2018-02-11T07:25:56.499Z,15.80
2018-02-11T07:28:24.085Z,15.77
2018-02-11T07:30:52.448Z,17.87
2018-02-11T07:33:20.751Z,16.17
2018-02-11T07:35:48.266Z,15.40
2018-02-11T07:38:16.819Z,18.20
2018-02-11T07:40:45.123Z,18.27
2018-02-11T07:43:12.664Z,17.60
2018-02-11T07:45:40.531Z,16.83
2018-02-11T07:48:08.076Z,17.67
2018-02-11T07:50:35.649Z,19.00
2018-02-11T07:53:03.971Z,16.13
2018-02-11T07:55:31.599Z,16.47
2018-02-11T07:57:59.077Z,17.13
2018-02-11T08:00:26.860Z,18.23
2018-02-11T08:02:55.200Z,17.57
2018-02-11T08:05:22.739Z,14.07
2018-02-11T08:07:50.308Z,17.57
2018-02-11T08:10:18.615Z,17.17
2018-02-11T08:12:46.163Z,16.03
2018-02-11T08:15:14.047Z,16.33
2018-02-11T08:17:41.620Z,14.80
2018-02-11T08:20:09.200Z,16.60
2018-02-11T08:22:37.024Z,15.90
2018-02-11T08:25:04.595Z,14.87
2018-02-11T08:27:32.169Z,16.30
2018-02-11T08:29:59.718Z,15.93
2018-02-11T08:32:27.259Z,17.43
2018-02-11T08:34:54.837Z,17.20
2018-02-11T08:37:22.436Z,16.10
2018-02-11T08:39:50.012Z,16.70
2018-02-11T08:42:17.568Z,17.17
2018-02-11T08:44:45.368Z,16.80
2018-02-11T08:47:12.942Z,15.67
2018-02-11T08:49:41.243Z,16.63
2018-02-11T08:52:08.898Z,15.73
2018-02-11T08:54:36.469Z,16.50
2018-02-11T08:57:04.010Z,15.63
2018-02-11T08:59:31.659Z,14.23
2018-02-11T09:01:59.204Z,16.63
2018-02-11T09:04:26.738Z,15.37
2018-02-11T09:06:54.497Z,16.53
2018-02-11T09:09:22.043Z,16.13
2018-02-11T09:11:49.618Z,15.27
2018-02-11T09:14:17.947Z,14.90
2018-02-11T09:16:45.479Z,15.67
2018-02-11T09:19:13.023Z,13.53
2018-02-11T09:21:40.654Z,14.67
2018-02-11T09:24:08.156Z,13.70
2018-02-11T09:26:36.479Z,12.17
2018-02-11T09:29:04.171Z,13.50
2018-02-11T09:31:31.753Z,12.70
2018-02-11T09:34:00.064Z,13.57
2018-02-11T09:36:28.391Z,13.53
2018-02-11T09:38:55.960Z,14.00
2018-02-11T09:41:24.271Z,12.00
2018-02-11T09:43:51.925Z,15.03
2018-02-11T09:46:19.500Z,13.73
2018-02-11T09:48:47.068Z,14.50
2018-02-11T09:51:15.503Z,14.07
2018-02-11T09:53:42.987Z,16.33
2018-02-11T09:56:10.552Z,15.03
2018-02-11T09:58:38.103Z,17.33
2018-02-11T10:01:05.636Z,15.33
2018-02-11T10:03:33.149Z,15.73
2018-02-11T10:06:00.715Z,13.03
2018-02-11T10:08:28.293Z,15.00
2018-02-11T10:10:55.842Z,14.00
2018-02-11T10:13:23.411Z,12.60
2018-02-11T10:15:51.744Z,11.53
2018-02-11T10:18:19.359Z,10.60
2018-02-11T10:20:47.020Z,11.80
2018-02-11T10:23:14.592Z,11.63
2018-02-11T10:25:42.127Z,10.93
2018-02-11T10:28:09.732Z,10.83
2018-02-11T10:30:37.307Z,13.63
2018-02-11T10:33:04.845Z,14.30
2018-02-11T10:35:32.659Z,10.53
2018-02-11T10:38:00.196Z,11.10
2018-02-11T10:40:28.532Z,12.07
2018-02-11T10:42:56.356Z,14.73
2018-02-11T10:45:23.896Z,12.37
2018-02-11T10:47:51.477Z,14.50
2018-02-11T10:50:20.268Z,15.80
2018-02-11T10:52:48.550Z,15.27
2018-02-11T10:55:16.075Z,14.57
2018-02-11T10:57:44.415Z,13.83
2018-02-11T11:00:12.000Z,13.57
2018-02-11T11:02:39.546Z,13.80
2018-02-11T11:05:07.243Z,13.13
2018-02-11T11:07:34.820Z,15.60
2018-02-11T11:10:03.167Z,13.57
2018-02-11T11:12:31.521Z,13.43
2018-02-11T11:14:59.063Z,13.40
2018-02-11T11:17:26.603Z,13.07
2018-02-11T11:19:54.274Z,14.50
2018-02-11T11:22:22.562Z,13.07
2018-02-11T11:24:50.152Z,15.10
2018-02-11T11:27:17.742Z,12.67
2018-02-11T11:29:45.344Z,11.67
2018-02-11T11:32:12.876Z,13.53
2018-02-11T11:34:40.488Z,14.77
2018-02-11T11:37:08.074Z,12.43
2018-02-11T11:39:35.584Z,14.03
2018-02-11T11:42:03.176Z,16.17
2018-02-11T11:44:31.522Z,14.20
2018-02-11T11:46:59.060Z,14.90
2018-02-11T11:49:26.652Z,12.67
2018-02-11T11:51:54.129Z,13.73
2018-02-11T11:54:21.701Z,15.23
2018-02-11T11:56:49.355Z,13.43
2018-02-11T11:59:16.932Z,14.70
2018-02-11T12:01:44.928Z,14.20
2018-02-11T12:04:12.744Z,13.23
2018-02-11T12:06:40.316Z,13.17
2018-02-11T12:09:08.652Z,13.20
2018-02-11T12:11:36.504Z,12.13
2018-02-11T12:14:04.088Z,13.10
2018-02-11T12:16:31.668Z,13.43
2018-02-11T12:18:59.260Z,12.63
2018-02-11T12:21:26.802Z,11.90
2018-02-11T12:23:54.335Z,12.43
2018-02-11T12:26:21.895Z,12.17
2018-02-11T12:28:49.431Z,12.23
2018-02-11T12:31:17.000Z,13.53
2018-02-11T12:33:44.595Z,12.73
2018-02-11T12:36:12.164Z,12.70
2018-02-11T12:38:39.736Z,12.37
2018-02-11T12:41:07.326Z,12.77
2018-02-11T12:43:34.798Z,14.20
2018-02-11T12:46:02.380Z,14.03
2018-02-11T12:48:30.915Z,14.37
2018-02-11T12:50:58.456Z,14.10
2018-02-11T12:53:26.024Z,13.60
2018-02-11T12:55:53.634Z,14.00
2018-02-11T12:58:21.203Z,13.73
2018-02-11T13:00:48.739Z,13.50
2018-02-11T13:03:16.456Z,15.00
2018-02-11T13:05:44.029Z,13.87
2018-02-11T13:08:11.613Z,13.83
2018-02-11T13:10:39.964Z,13.70
2018-02-11T13:13:08.305Z,13.00
2018-02-11T13:15:35.839Z,14.33
2018-02-11T13:18:03.802Z,19.23
2018-02-11T13:20:31.338Z,14.40
2018-02-11T13:22:58.925Z,12.97
2018-02-11T13:25:26.617Z,15.10
2018-02-11T13:27:54.163Z,14.47
2018-02-11T13:30:21.736Z,14.20
2018-02-11T13:32:50.093Z,16.50
2018-02-11T13:35:17.665Z,14.30
2018-02-11T13:37:45.975Z,13.70
2018-02-11T13:40:13.595Z,16.17
2018-02-11T13:42:41.184Z,15.13
2018-02-11T13:45:08.759Z,15.63
2018-02-11T13:47:36.373Z,16.97
2018-02-11T13:50:03.956Z,15.50
2018-02-11T13:52:31.511Z,15.93
2018-02-11T13:54:59.339Z,13.87
2018-02-11T13:57:27.643Z,13.37
2018-02-11T13:59:55.217Z,13.93
2018-02-11T14:02:22.808Z,15.63
2018-02-11T14:04:50.352Z,12.53
2018-02-11T14:07:17.932Z,14.00
2018-02-11T14:09:45.691Z,12.43
2018-02-11T14:12:13.304Z,12.67
2018-02-11T14:14:40.854Z,12.97
2018-02-11T14:17:08.736Z,12.40
2018-02-11T14:19:36.312Z,13.17
2018-02-11T14:22:04.611Z,12.63
2018-02-11T14:24:32.120Z,12.17
2018-02-11T14:27:00.483Z,12.57
2018-02-11T14:29:28.063Z,13.30
2018-02-11T14:31:55.651Z,12.43
2018-02-11T14:34:23.959Z,13.67
2018-02-11T14:36:51.621Z,13.23
2018-02-11T14:39:19.210Z,13.37
2018-02-11T14:41:47.552Z,13.07
2018-02-11T14:44:15.037Z,13.33
2018-02-11T14:46:42.684Z,12.00
2018-02-11T14:49:10.223Z,11.80
2018-02-11T14:51:37.766Z,10.63
2018-02-11T14:54:05.495Z,12.17
2018-02-11T14:56:33.818Z,12.50
2018-02-11T14:59:01.391Z,12.70
2018-02-11T15:01:29.156Z,10.90
2018-02-11T15:03:57.624Z,12.50
2018-02-11T15:06:25.135Z,11.03
2018-02-11T15:08:52.741Z,10.83
2018-02-11T15:11:20.302Z,11.00
2018-02-11T15:13:47.845Z,9.60
2018-02-11T15:16:15.510Z,10.33
2018-02-11T15:18:43.082Z,9.90
2018-02-11T15:21:11.452Z,11.10
2018-02-11T15:23:39.783Z,10.97
2018-02-11T15:26:07.332Z,12.03
2018-02-11T15:28:34.871Z,13.00
2018-02-11T15:31:02.481Z,12.13
2018-02-11T15:33:30.030Z,12.57
2018-02-11T15:35:57.613Z,10.63
2018-02-11T15:38:25.305Z,12.67
2018-02-11T15:40:52.898Z,12.37
2018-02-11T15:43:20.562Z,11.93
2018-02-11T15:45:48.241Z,13.90
2018-02-11T15:48:15.821Z,12.20
2018-02-11T15:50:43.460Z,11.57
2018-02-11T15:53:11.251Z,10.50
2018-02-11T15:55:39.598Z,12.10
2018-02-11T15:58:07.210Z,11.03
2018-02-11T16:00:34.956Z,11.13
2018-02-11T16:03:02.525Z,14.63
2018-02-11T16:05:30.156Z,11.90
2018-02-11T16:07:57.710Z,14.53
2018-02-11T16:10:25.290Z,13.50
2018-02-11T16:12:53.589Z,14.43
2018-02-11T16:15:21.336Z,12.33
2018-02-11T16:17:48.918Z,12.70
2018-02-11T16:20:16.543Z,13.37
2018-02-11T16:22:44.157Z,13.53
2018-02-11T16:25:11.748Z,14.00
2018-02-11T16:27:39.336Z,11.27
2018-02-11T16:30:07.145Z,11.83
2018-02-11T16:32:34.893Z,11.40
2018-02-11T16:35:02.540Z,10.80
2018-02-11T16:37:30.416Z,12.87
2018-02-11T16:39:57.972Z,10.93
2018-02-11T16:42:25.556Z,11.43
2018-02-11T16:44:54.282Z,13.33
2018-02-11T16:47:21.830Z,11.83
2018-02-11T16:49:50.127Z,12.00
2018-02-11T16:52:17.736Z,12.87
2018-02-11T16:54:45.304Z,11.63
2018-02-11T16:57:12.797Z,11.03
2018-02-11T16:59:40.482Z,10.83
2018-02-11T17:02:08.083Z,13.30
2018-02-11T17:04:36.440Z,12.23
2018-02-11T17:07:04.180Z,13.20
2018-02-11T17:09:31.719Z,11.53
2018-02-11T17:11:59.296Z,11.97
2018-02-11T17:14:27.656Z,14.53
2018-02-11T17:16:55.972Z,12.67
2018-02-11T17:19:23.551Z,13.37
2018-02-11T17:21:51.257Z,11.60
2018-02-11T17:24:18.899Z,13.80
2018-02-11T17:26:46.412Z,12.33
2018-02-11T17:29:14.036Z,13.23
2018-02-11T17:31:41.610Z,11.90
2018-02-11T17:34:09.192Z,12.23
2018-02-11T17:36:37.638Z,12.17
2018-02-11T17:39:05.201Z,13.30
2018-02-11T17:41:32.743Z,11.17
2018-02-11T17:44:00.319Z,11.87
2018-02-11T17:46:27.897Z,11.93
2018-02-11T17:48:55.459Z,11.87
2018-02-11T17:51:23.284Z,12.50
2018-02-11T17:53:50.870Z,12.03
2018-02-11T17:56:18.444Z,12.70
2018-02-11T17:58:46.179Z,12.17
2018-02-11T18:01:13.752Z,11.87
2018-02-11T18:03:42.065Z,11.90
2018-02-11T18:06:09.615Z,12.93
2018-02-11T18:08:37.955Z,11.93
2018-02-11T18:11:05.532Z,12.43
2018-02-11T18:13:33.140Z,12.13
2018-02-11T18:16:00.716Z,12.23
2018-02-11T18:18:28.188Z,12.00
2018-02-11T18:20:55.751Z,11.57
2018-02-11T18:23:23.288Z,11.20
2018-02-11T18:25:51.629Z,11.70
2018-02-11T18:28:19.170Z,11.17
2018-02-11T18:30:46.694Z,10.53
2018-02-11T18:33:15.029Z,9.03
2018-02-11T18:35:42.843Z,10.10
2018-02-11T18:38:11.143Z,10.30
2018-02-11T18:40:38.683Z,10.00
2018-02-11T18:43:06.370Z,9.67
2018-02-11T18:45:33.936Z,9.70
2018-02-11T18:48:02.235Z,9.73
2018-02-11T18:50:29.821Z,10.00
2018-02-11T18:52:57.392Z,10.17
2018-02-11T18:55:25.729Z,10.20
2018-02-11T18:57:53.283Z,9.77
2018-02-11T19:00:20.817Z,9.60
2018-02-11T19:02:48.389Z,10.20
2018-02-11T19:05:16.659Z,9.67
2018-02-11T19:07:44.985Z,8.97
2018-02-11T19:10:12.552Z,8.73
2018-02-11T19:12:40.878Z,9.50
2018-02-11T19:15:08.442Z,8.13
2018-02-11T19:17:35.976Z,9.47
2018-02-11T19:20:03.522Z,9.13
2018-02-11T19:22:31.048Z,9.50
2018-02-11T19:24:59.363Z,10.10
2018-02-11T19:27:26.987Z,8.73
2018-02-11T19:29:55.296Z,9.57
2018-02-11T19:32:22.880Z,9.73
2018-02-11T19:34:50.485Z,8.70
2018-02-11T19:37:18.053Z,8.97
2018-02-11T19:39:45.616Z,9.90
2018-02-11T19:42:13.385Z,8.87
2018-02-11T19:44:41.625Z,8.00
2018-02-11T19:47:09.147Z,7.83
2018-02-11T19:49:36.932Z,8.17
2018-02-11T19:52:05.240Z,8.57
2018-02-11T19:54:32.783Z,10.27
2018-02-11T19:57:01.146Z,8.60
2018-02-11T19:59:28.716Z,8.60
2018-02-11T20:01:56.285Z,8.57
2018-02-11T20:04:24.901Z,8.70
2018-02-11T20:06:52.440Z,8.07
2018-02-11T20:09:20.141Z,7.50
2018-02-11T20:11:47.732Z,7.03
2018-02-11T20:14:15.238Z,7.00
2018-02-11T20:16:43.526Z,9.13
2018-02-11T20:19:11.121Z,7.50
2018-02-11T20:21:38.688Z,6.17
2018-02-11T20:24:07.025Z,6.07
2018-02-11T20:26:34.913Z,5.93
2018-02-11T20:29:02.434Z,5.60
2018-02-11T20:31:29.992Z,5.00
2018-02-11T20:33:57.901Z,5.77
2018-02-11T20:36:25.442Z,4.30
2018-02-11T20:38:52.972Z,4.23
2018-02-11T20:41:20.773Z,4.40
2018-02-11T20:43:49.076Z,3.90
2018-02-11T20:46:16.653Z,3.53
2018-02-11T20:48:44.256Z,3.63
2018-02-11T20:51:11.833Z,3.87
2018-02-11T20:53:40.200Z,4.87
2018-02-11T20:56:07.756Z,4.47
2018-02-11T20:58:35.320Z,4.60
2018-02-11T21:01:02.950Z,5.00
2018-02-11T21:03:30.619Z,3.93
2018-02-11T21:05:58.167Z,3.80
2018-02-11T21:08:25.736Z,4.10
2018-02-11T21:10:53.639Z,3.80
2018-02-11T21:13:21.167Z,4.83
2018-02-11T21:15:48.682Z,6.90
2018-02-11T21:18:16.455Z,3.93
2018-02-11T21:20:43.989Z,4.57
2018-02-11T21:23:11.520Z,5.13
2018-02-11T21:25:39.324Z,3.80
2018-02-11T21:28:07.665Z,3.10
2018-02-11T21:30:35.199Z,4.57
2018-02-11T21:33:02.889Z,5.57
2018-02-11T21:35:30.432Z,3.80
2018-02-11T21:37:57.963Z,4.47
2018-02-11T21:40:25.816Z,4.50
2018-02-11T21:42:54.189Z,3.13
2018-02-11T21:45:21.734Z,3.57
2018-02-11T21:47:49.336Z,3.60
2018-02-11T21:50:16.868Z,3.73
2018-02-11T21:52:44.403Z,3.23
2018-02-11T21:55:12.875Z,3.10
2018-02-11T21:57:40.436Z,3.40
2018-02-11T22:02:35.820Z,4.20
2018-02-11T22:05:03.355Z,3.07
2018-02-11T22:07:30.883Z,4.67
2018-02-11T22:09:58.475Z,5.87
2018-02-11T22:12:26.784Z,6.57
2018-02-11T22:14:54.328Z,8.97
2018-02-11T22:17:22.074Z,3.60
2018-02-11T22:19:50.550Z,5.60
2018-02-11T22:22:18.120Z,4.43
2018-02-11T22:24:45.759Z,6.10
2018-02-11T22:27:13.328Z,3.47
2018-02-11T22:29:41.669Z,5.23
2018-02-11T22:32:09.444Z,3.67
2018-02-11T22:34:37.743Z,3.60
2018-02-11T22:37:05.275Z,3.90
2018-02-11T22:39:33.070Z,3.57
2018-02-11T22:42:00.602Z,3.30
2018-02-11T22:44:28.931Z,3.70
2018-02-11T22:46:56.499Z,6.53
2018-02-11T22:49:24.063Z,4.93
2018-02-11T22:51:51.632Z,6.07
2018-02-11T22:54:20.204Z,4.37
2018-02-11T22:56:48.548Z,5.20
2018-02-11T22:59:16.124Z,5.40
2018-02-11T23:01:43.814Z,4.47
2018-02-11T23:04:11.323Z,3.37
2018-02-11T23:06:38.896Z,6.77
2018-02-11T23:09:06.737Z,6.57
2018-02-11T23:11:34.308Z,4.53
2018-02-11T23:14:01.839Z,4.30
2018-02-11T23:16:29.403Z,6.37
2018-02-11T23:18:56.936Z,3.70
2018-02-11T23:21:24.502Z,4.47
2018-02-11T23:23:52.859Z,9.47
2018-02-11T23:26:20.424Z,6.07
2018-02-11T23:28:48.724Z,6.60
2018-02-11T23:31:16.311Z,7.23
2018-02-11T23:33:43.887Z,5.13
2018-02-11T23:36:11.420Z,6.63
2018-02-11T23:38:39.864Z,7.27
2018-02-11T23:41:07.391Z,5.23
2018-02-11T23:43:34.956Z,6.43
2018-02-11T23:46:03.304Z,4.93
2018-02-11T23:48:30.772Z,7.10
2018-02-11T23:50:59.014Z,6.23
2018-02-11T23:53:26.688Z,4.40
2018-02-11T23:55:54.257Z,8.00
2018-02-11T23:58:21.794Z,7.27
